Time;durP1;ratioP1;P1;durP2;ratioP2;P2;SDS_P1;SDS_P2;PMS_P1;PMS_P2;Temp;Humidity;BMP_temperature;BMP_pressure;BME280_temperature;BME280_humidity;BME280_pressure;Samples;Min_cycle;Max_cycle;Signal;HPM_P1;HPM_P2
2024/04/08 00:02:41;;;;;;;6.80;3.80;;;;;;;17.83;61.97;98662.09;435137;1252;107964;-40
2024/04/08 00:12:49;;;;;;;8.00;3.70;;;;;;;17.78;62.25;98666.88;435400;1253;99723;-40
2024/04/08 00:22:55;;;;;;;4.10;2.60;;;;;;;17.64;62.22;98672.48;435242;1257;108473;-40
2024/04/08 00:33:02;;;;;;;4.30;2.70;;;;;;;17.46;62.50;98664.89;435251;1256;100619;-41
2024/04/08 00:43:09;;;;;;;6.20;3.20;;;;;;;17.31;62.87;98675.38;435381;1255;112791;-41
2024/04/08 00:53:16;;;;;;;6.70;3.60;;;;;;;17.06;62.97;98665.66;435080;1253;106308;-40
2024/04/08 01:03:23;;;;;;;7.10;4.00;;;;;;;16.85;63.35;98664.84;435358;1253;99398;-41
2024/04/08 01:13:31;;;;;;;7.60;5.10;;;;;;;16.52;64.34;98657.46;436068;1254;108608;-41
2024/04/08 01:23:37;;;;;;;6.80;5.20;;;;;;;16.25;65.08;98654.41;435311;1253;99352;-41
2024/04/08 01:33:44;;;;;;;8.80;5.40;;;;;;;16.07;65.61;98647.30;435236;1253;112995;-40
2024/04/08 01:43:51;;;;;;;10.30;6.70;;;;;;;15.86;66.16;98639.84;435174;1258;108893;-41
2024/04/08 01:53:56;;;;;;;12.30;7.90;;;;;;;15.45;67.07;98633.45;435195;1255;100456;-40
2024/04/08 02:04:04;;;;;;;11.10;6.30;;;;;;;15.16;67.83;98631.04;435352;1251;107461;-41
2024/04/08 02:14:11;;;;;;;13.30;6.80;;;;;;;14.98;68.23;98624.67;435272;1257;100715;-40
2024/04/08 02:24:17;;;;;;;11.10;7.10;;;;;;;14.89;68.82;98623.65;435493;1255;113419;-40
2024/04/08 02:34:23;;;;;;;12.30;8.70;;;;;;;14.73;69.64;98613.34;435225;1255;107059;-40
2024/04/08 02:44:30;;;;;;;12.10;8.60;;;;;;;14.59;70.03;98605.26;435284;1263;100574;-40
2024/04/08 02:54:36;;;;;;;13.60;8.40;;;;;;;14.52;70.33;98602.98;435171;1256;108494;-40
2024/04/08 03:04:43;;;;;;;15.40;8.60;;;;;;;14.38;70.97;98599.60;435275;1257;100584;-41
2024/04/08 03:14:49;;;;;;;13.80;7.50;;;;;;;14.28;71.44;98594.89;435263;1256;113325;-41
2024/04/08 03:24:56;;;;;;;13.80;8.70;;;;;;;14.27;71.62;98607.12;435219;1256;109698;-40
2024/04/08 03:35:03;;;;;;;13.10;9.90;;;;;;;14.11;71.64;98608.95;435227;1255;100581;-41
2024/04/08 03:45:09;;;;;;;17.60;10.50;;;;;;;13.90;72.17;98613.16;435296;1257;107880;-41
2024/04/08 03:55:13;;;;;;;13.60;9.20;;;;;;;13.86;72.54;98607.28;435386;1263;100675;-41
2024/04/08 04:05:19;;;;;;;19.10;10.30;;;;;;;13.91;72.82;98604.67;435305;1256;112884;-40
2024/04/08 04:15:26;;;;;;;19.30;11.40;;;;;;;13.90;73.12;98600.61;435257;1251;109488;-41
2024/04/08 04:25:49;;;;;;;17.70;10.40;;;;;;;13.97;73.36;98596.23;435299;1257;99399;-41
2024/04/08 04:35:54;;;;;;;18.20;10.50;;;;;;;14.20;73.48;98597.59;435204;1256;107668;-40
2024/04/08 04:46:01;;;;;;;18.30;11.00;;;;;;;14.34;73.43;98598.39;435155;1258;100639;-41
2024/04/08 04:56:06;;;;;;;22.40;10.90;;;;;;;14.33;73.65;98594.60;435238;1255;111859;-40
2024/04/08 05:26:23;;;;;;;13.80;8.20;;;;;;;14.69;74.48;98581.16;435171;1256;108719;-41
2024/04/08 05:36:29;;;;;;;15.40;8.70;;;;;;;14.94;74.94;98577.45;435183;1256;99370;-41
2024/04/08 05:46:41;;;;;;;8.60;6.90;;;;;;;15.39;74.70;98577.90;434944;1264;112038;-41
2024/04/08 05:56:47;;;;;;;;;;;;;;;15.93;74.39;98571.80;435219;1264;108762;-41
2024/04/08 06:06:54;;;;;;;18.40;6.90;;;;;;;16.42;73.72;98575.80;435306;1251;99379;-41
2024/04/08 06:17:01;;;;;;;12.60;7.80;;;;;;;16.92;72.77;98565.41;435137;1257;109452;-41
2024/04/08 06:27:07;;;;;;;16.00;7.20;;;;;;;17.41;71.99;98563.55;435235;1264;100594;-43
2024/04/08 06:47:31;;;;;;;20.90;4.60;;;;;;;19.62;68.40;98571.14;435246;1258;108698;-41
2024/04/08 06:57:51;;;;;;;15.40;5.30;;;;;;;20.20;66.37;98580.53;435168;1251;99391;-42
2024/04/08 07:07:58;;;;;;;10.30;4.50;;;;;;;20.80;64.81;98571.98;435266;1251;108887;-41
2024/04/08 07:18:05;;;;;;;5.00;3.50;;;;;;;21.14;62.95;98569.45;435241;1251;100609;-41
2024/04/08 07:28:12;;;;;;;13.40;4.10;;;;;;;21.32;61.44;98577.43;435399;1252;112648;-41
2024/04/08 07:38:19;;;;;;;11.90;4.60;;;;;;;21.51;61.16;98583.84;435191;1257;108879;-42
2024/04/08 07:48:26;;;;;;;12.10;3.80;;;;;;;21.95;59.10;98578.13;435233;1251;99637;-40
2024/04/08 07:58:34;;;;;;;11.40;4.40;;;;;;;22.36;57.61;98576.89;435126;1251;110005;-40
2024/04/08 08:28:50;;;;;;;10.80;2.60;;;;;;;23.49;52.70;98566.77;435413;1257;108484;-40
2024/04/08 08:38:57;;;;;;;5.20;2.50;;;;;;;23.74;51.49;98565.94;435288;1256;100628;-41
2024/04/08 08:49:16;;;;;;;15.60;2.50;;;;;;;24.09;49.86;98556.70;435374;1251;108755;-40
2024/04/08 08:59:38;;;;;;;10.40;2.20;;;;;;;24.22;48.66;98564.26;435221;1256;100615;-41
2024/04/08 09:50:19;;;;;;;3.30;1.90;;;;;;;25.17;45.60;98538.40;435218;1251;99740;-39
2024/04/08 10:10:37;;;;;;;7.40;1.90;;;;;;;25.59;45.06;98531.40;435205;1257;108713;-40
2024/04/08 10:20:42;;;;;;;5.10;2.00;;;;;;;25.90;44.16;98523.52;435244;1251;100587;-40
2024/04/08 10:30:52;;;;;;;4.80;1.90;;;;;;;25.95;43.06;98511.67;435344;1256;108714;-40
2024/04/08 10:41:05;;;;;;;5.90;1.90;;;;;;;26.22;43.51;98509.98;435361;1256;100601;-40
2024/04/08 11:01:19;;;;;;;7.50;2.00;;;;;;;26.69;42.47;98501.05;435308;1253;108870;-39
2024/04/08 11:11:24;;;;;;;4.60;1.70;;;;;;;27.02;41.87;98494.50;435249;1256;100581;-40
2024/04/08 11:21:31;;;;;;;5.50;1.90;;;;;;;27.06;40.75;98491.20;435479;1256;108665;-40
2024/04/08 11:31:39;;;;;;;6.50;1.70;;;;;;;26.91;39.01;98471.02;435257;1251;100568;-40
2024/04/08 11:41:46;;;;;;;4.80;1.40;;;;;;;26.63;39.31;98464.79;435368;1251;113679;-41
2024/04/08 11:51:53;;;;;;;11.70;2.20;;;;;;;26.75;39.16;98458.66;435079;1253;109712;-40
2024/04/08 12:02:00;;;;;;;8.10;2.00;;;;;;;27.11;39.21;98443.20;435490;1251;100571;-40
2024/04/08 12:12:09;;;;;;;2.60;1.90;;;;;;;27.29;38.70;98433.40;435235;1251;107622;-41
2024/04/08 12:32:23;;;;;;;2.20;1.60;;;;;;;27.35;38.09;98429.61;435254;1256;113918;-40
2024/04/08 12:42:29;;;;;;;1.20;1.00;;;;;;;27.32;37.21;98419.86;435193;1251;108652;-39
2024/04/08 12:52:35;;;;;;;10.90;2.00;;;;;;;27.39;36.88;98407.48;435242;1251;100716;-39
2024/04/08 13:02:41;;;;;;;;;;;;;;;27.24;35.90;98407.67;435327;1256;109198;-40
2024/04/08 13:22:52;;;;;;;;;;;;;;;27.00;36.48;98398.44;435238;1256;114352;-39
2024/04/08 13:32:59;;;;;;;5.70;1.80;;;;;;;27.13;36.67;98401.76;435302;1251;109431;-39
2024/04/08 13:43:06;;;;;;;1.90;1.20;;;;;;;27.11;36.70;98391.95;435324;1251;99930;-40
2024/04/08 13:53:13;;;;;;;5.50;1.60;;;;;;;26.89;36.61;98388.85;435291;1255;107016;-41
2024/04/08 14:03:18;;;;;;;4.50;1.50;;;;;;;26.81;36.86;98387.73;435283;1256;100565;-40
2024/04/08 14:13:25;;;;;;;3.60;1.30;;;;;;;26.71;37.11;98386.86;435301;1255;112182;-41
2024/04/08 14:23:32;;;;;;;2.50;1.70;;;;;;;26.59;36.50;98376.34;435153;1250;107639;-41
2024/04/08 14:33:39;;;;;;;5.30;1.50;;;;;;;26.43;36.01;98377.08;435420;1255;99416;-40
2024/04/08 14:54:06;;;;;;;5.30;1.80;;;;;;;26.26;36.46;98363.30;435148;1251;99358;-39
2024/04/08 15:04:13;;;;;;;3.20;1.10;;;;;;;26.37;36.54;98358.56;435370;1256;113037;-41
2024/04/08 15:14:20;;;;;;;17.10;1.90;;;;;;;26.34;36.42;98358.30;435061;1251;108618;-39
2024/04/08 15:24:26;;;;;;;12.80;3.00;;;;;;;26.04;36.32;98349.56;434937;1253;99367;-41
2024/04/08 15:34:33;;;;;;;4.60;1.80;;;;;;;25.76;36.42;98340.69;434977;1256;109412;-41
2024/04/08 15:44:38;;;;;;;;;;;;;;;25.56;37.19;98339.45;435056;1256;99410;-40
2024/04/08 15:54:45;;;;;;;2.90;1.40;;;;;;;25.45;37.62;98332.50;434968;1253;113404;-39
2024/04/08 16:04:52;;;;;;;24.00;2.50;;;;;;;25.40;37.85;98323.52;434940;1252;108638;-40
2024/04/08 16:14:56;;;;;;;8.80;2.10;;;;;;;25.43;38.03;98321.14;435245;1251;100597;-40
2024/04/08 16:35:23;;;;;;;9.60;2.30;;;;;;;25.15;38.26;98318.93;435079;1256;100604;-41
2024/04/08 16:45:30;;;;;;;9.80;2.80;;;;;;;24.83;38.71;98314.95;435118;1256;113584;-40
2024/04/08 16:55:37;;;;;;;3.70;2.60;;;;;;;24.32;39.11;98320.51;435167;1256;107707;-43
2024/04/08 17:05:44;;;;;;;6.30;2.60;;;;;;;23.69;40.00;98321.89;435150;1256;100045;-42
2024/04/08 17:15:50;;;;;;;19.90;3.50;;;;;;;22.97;40.86;98316.58;435209;1251;110000;-42
2024/04/08 17:25:58;;;;;;;13.00;4.10;;;;;;;22.37;42.23;98318.34;435041;1255;99714;-40
2024/04/08 17:36:05;;;;;;;16.00;6.20;;;;;;;21.64;43.29;98319.40;435135;1253;111836;-42
2024/04/08 17:46:12;;;;;;;17.60;4.90;;;;;;;20.96;44.49;98323.37;434709;1253;683028;-40
2024/04/08 17:56:19;;;;;;;20.30;6.00;;;;;;;20.38;45.63;98329.60;435210;1254;100517;-44
2024/04/08 18:06:26;;;;;;;17.20;6.30;;;;;;;19.86;46.84;98333.98;434993;1256;108795;-41
2024/04/08 18:16:32;;;;;;;16.40;6.60;;;;;;;19.48;47.77;98344.42;435034;1251;99315;-41
2024/04/08 18:26:40;;;;;;;19.80;9.50;;;;;;;19.08;48.50;98347.42;435101;1254;112908;-40
2024/04/08 18:36:47;;;;;;;19.40;8.60;;;;;;;18.72;49.36;98347.30;435064;1256;108499;-41
2024/04/08 18:46:54;;;;;;;12.40;8.50;;;;;;;18.37;49.96;98343.56;435112;1256;100610;-41
2024/04/08 18:57:01;;;;;;;24.40;10.70;;;;;;;18.09;50.82;98345.65;435008;1251;108314;-40
2024/04/08 19:07:07;;;;;;;24.90;11.20;;;;;;;17.84;51.55;98340.75;435210;1256;100690;-39
2024/04/08 19:17:14;;;;;;;22.90;11.20;;;;;;;17.61;52.05;98343.14;435198;1256;112793;-41
2024/04/08 19:27:21;;;;;;;26.50;12.60;;;;;;;17.47;52.82;98341.70;434974;1256;108635;-40
2024/04/08 19:37:29;;;;;;;25.50;13.80;;;;;;;17.33;53.22;98344.52;435249;1251;100596;-40
2024/04/08 19:47:37;;;;;;;28.40;14.30;;;;;;;17.08;53.83;98345.58;435089;1256;108749;-44
2024/04/08 20:07:53;;;;;;;25.00;13.60;;;;;;;16.64;54.96;98351.44;435130;1256;113089;-40
2024/04/08 20:18:00;;;;;;;30.40;15.20;;;;;;;16.54;55.61;98355.31;435164;1256;108987;-40
2024/04/08 20:28:07;;;;;;;19.30;12.70;;;;;;;16.50;55.85;98347.76;435246;1256;100586;-41
2024/04/08 20:38:17;;;;;;;22.30;13.10;;;;;;;16.48;56.04;98338.85;435002;1251;108179;-41
2024/04/08 20:48:23;;;;;;;24.60;14.40;;;;;;;16.33;56.47;98335.95;435278;1265;100567;-40
2024/04/08 20:58:31;;;;;;;29.00;14.20;;;;;;;16.28;57.03;98337.56;435092;1256;113333;-41
2024/04/08 21:18:46;;;;;;;24.50;11.80;;;;;;;15.89;57.58;98341.91;435076;1256;99308;-41
2024/04/08 21:28:52;;;;;;;18.30;11.00;;;;;;;15.98;57.89;98341.51;434834;1256;107527;-41
2024/04/08 21:38:59;;;;;;;18.50;11.00;;;;;;;16.18;58.03;98337.40;434980;1253;100568;-40
2024/04/08 21:49:07;;;;;;;22.90;11.70;;;;;;;16.17;57.83;98330.78;434931;1259;112579;-41
2024/04/08 21:59:14;;;;;;;26.30;12.10;;;;;;;16.16;57.79;98322.94;434979;1265;108294;-40
2024/04/08 22:09:21;;;;;;;21.50;11.20;;;;;;;16.11;58.07;98320.55;434909;1253;100572;-41
2024/04/08 22:19:28;;;;;;;20.20;11.30;;;;;;;15.95;58.20;98323.55;435169;1256;110067;-41
2024/04/08 22:29:35;;;;;;;19.20;12.30;;;;;;;15.82;58.28;98322.41;435174;1255;100569;-40
2024/04/08 22:39:41;;;;;;;14.00;10.20;;;;;;;15.57;58.47;98320.95;435195;1256;112402;-41
2024/04/08 22:49:48;;;;;;;21.70;12.30;;;;;;;15.52;58.83;98310.61;435042;1265;107450;-41
2024/04/08 22:59:56;;;;;;;27.50;14.20;;;;;;;15.37;59.25;98306.85;435137;1257;100603;-41
2024/04/08 23:10:01;;;;;;;22.80;13.50;;;;;;;15.17;59.68;98306.23;435291;1256;107485;-40
2024/04/08 23:20:09;;;;;;;23.30;13.50;;;;;;;14.97;59.95;98306.12;435167;1257;100681;-41
2024/04/08 23:30:18;;;;;;;20.40;12.50;;;;;;;14.73;60.35;98301.25;435276;1256;113159;-41
2024/04/08 23:40:26;;;;;;;22.20;12.00;;;;;;;14.74;60.81;98293.43;435245;1256;108256;-40
2024/04/08 23:50:33;;;;;;;58.60;12.80;;;;;;;14.83;60.67;98281.40;435265;1256;100603;-40
